Terminal Aerodrome Forecast
Issued by NWS Jackson, MS

Home | Current Version | Previous Version | Text Only | Print | Product List | Glossary On
Versions: 1 2 3 4 5 6 7 8 9 10 11 12 13 14 15 16 17
000
FTUS44 KMEG 241130
TAFTUP
TAF
KTUP 241130Z 2412/2512 VRB03KT P6SM SKC
      TEMPO 2412/2413 5SM BR FEW002
     FM241700 15006KT P6SM FEW035 SCT250
     FM250500 18010KT P6SM SCT015 BKN250 WS020/21045KT=

USA.gov is the U.S. government's official web portal to all federal, state and local government web resources and services.